createdAt,value
2019-05-18T00:02:24.489Z,3.60
2019-05-18T00:04:53.307Z,3.60
2019-05-18T00:07:22.256Z,3.70
2019-05-18T00:09:54.321Z,3.93
2019-05-18T00:12:23.243Z,4.10
2019-05-18T00:14:52.335Z,4.20
2019-05-18T00:17:36.504Z,3.93
2019-05-18T00:20:24.646Z,4.33
2019-05-18T00:22:53.782Z,4.07
2019-05-18T00:25:22.856Z,4.47
2019-05-18T00:27:53.742Z,3.60
2019-05-18T00:30:22.994Z,4.97
2019-05-18T00:32:52.178Z,4.23
2019-05-18T00:35:22.338Z,3.60
2019-05-18T00:37:55.734Z,4.00
2019-05-18T00:40:27.168Z,4.27
2019-05-18T00:42:56.232Z,4.37
2019-05-18T00:45:44.462Z,4.17
2019-05-18T00:48:13.762Z,4.20
2019-05-18T00:50:42.883Z,4.20
2019-05-18T00:53:11.863Z,4.77
2019-05-18T00:55:41.095Z,4.23
2019-05-18T00:58:12.582Z,4.60
2019-05-18T01:00:41.695Z,4.10
2019-05-18T01:03:14.822Z,4.40
2019-05-18T01:05:43.882Z,4.30
2019-05-18T01:08:13.002Z,4.10
2019-05-18T01:11:01.458Z,4.20
2019-05-18T01:13:30.344Z,4.10
2019-05-18T01:15:59.530Z,4.00
2019-05-18T01:18:28.670Z,3.97
2019-05-18T01:20:59.071Z,3.93
2019-05-18T01:23:28.656Z,4.13
2019-05-18T01:25:57.537Z,4.03
2019-05-18T01:28:26.630Z,3.80
2019-05-18T01:30:55.854Z,3.87
2019-05-18T01:33:24.946Z,3.90
2019-05-18T01:35:54.405Z,3.53
2019-05-18T01:38:27.216Z,4.30
2019-05-18T01:40:56.271Z,3.93
2019-05-18T01:43:44.598Z,4.10
2019-05-18T01:46:13.771Z,5.07
2019-05-18T01:48:42.725Z,4.03
2019-05-18T01:51:11.986Z,4.30
2019-05-18T01:53:44.389Z,4.63
2019-05-18T01:56:13.198Z,4.67
2019-05-18T01:58:42.534Z,4.70
2019-05-18T02:01:12.753Z,4.80
2019-05-18T02:03:41.627Z,4.97
2019-05-18T02:06:10.498Z,4.50
2019-05-18T02:08:41.909Z,4.93
2019-05-18T02:11:11.159Z,5.13
2019-05-18T02:13:40.761Z,4.47
2019-05-18T02:16:12.495Z,4.77
2019-05-18T02:18:41.777Z,4.97
2019-05-18T02:21:12.083Z,5.03
2019-05-18T02:23:41.120Z,4.77
2019-05-18T02:26:11.031Z,4.70
2019-05-18T02:28:41.822Z,5.00
2019-05-18T02:31:10.839Z,5.20
2019-05-18T02:33:39.961Z,5.27
2019-05-18T02:36:09.128Z,5.13
2019-05-18T02:38:38.288Z,5.40
2019-05-18T02:41:07.304Z,4.97
2019-05-18T02:43:55.277Z,4.70
2019-05-18T02:46:24.331Z,5.07
2019-05-18T02:48:53.473Z,4.80
2019-05-18T02:51:22.578Z,4.20
2019-05-18T02:53:51.614Z,4.87
2019-05-18T02:56:20.710Z,4.87
2019-05-18T02:58:50.207Z,4.33
2019-05-18T03:01:19.143Z,4.77
2019-05-18T03:03:48.310Z,4.20
2019-05-18T03:06:17.496Z,4.60
2019-05-18T03:08:46.498Z,3.97
2019-05-18T03:11:15.574Z,4.87
2019-05-18T03:13:44.765Z,4.00
2019-05-18T03:16:13.776Z,4.57
2019-05-18T03:18:42.879Z,4.13
2019-05-18T03:21:12.031Z,4.63
2019-05-18T03:23:41.287Z,4.20
2019-05-18T03:26:10.145Z,4.43
2019-05-18T03:28:39.069Z,4.50
2019-05-18T03:31:08.131Z,4.47
2019-05-18T03:33:37.126Z,4.60
2019-05-18T03:36:06.207Z,4.73
2019-05-18T03:38:35.228Z,4.77
2019-05-18T03:41:04.415Z,5.13
2019-05-18T03:43:33.479Z,4.57
2019-05-18T03:46:02.563Z,4.87
2019-05-18T03:48:31.605Z,4.80
2019-05-18T03:51:00.776Z,4.50
2019-05-18T03:53:32.763Z,5.10
2019-05-18T03:56:01.731Z,4.87
2019-05-18T03:58:30.864Z,4.30
2019-05-18T04:00:59.913Z,5.00
2019-05-18T04:03:29.026Z,4.53
2019-05-18T04:05:58.175Z,5.00
2019-05-18T04:08:27.298Z,4.93
2019-05-18T04:10:56.268Z,4.60
2019-05-18T04:13:25.456Z,4.70
2019-05-18T04:15:54.618Z,4.50
2019-05-18T04:18:23.611Z,4.50
2019-05-18T04:20:52.742Z,4.93
2019-05-18T04:23:21.773Z,4.73
2019-05-18T04:25:52.125Z,4.67
2019-05-18T04:28:21.181Z,4.27
2019-05-18T04:30:50.331Z,4.70
2019-05-18T04:33:19.400Z,4.70
2019-05-18T04:35:48.480Z,4.80
2019-05-18T04:38:17.641Z,4.60
2019-05-18T04:40:46.870Z,4.93
2019-05-18T04:43:16.243Z,4.40
2019-05-18T04:45:45.116Z,5.23
2019-05-18T04:48:14.409Z,4.80
2019-05-18T04:50:43.218Z,4.70
2019-05-18T04:53:12.191Z,5.07
2019-05-18T04:55:41.339Z,5.07
2019-05-18T04:58:10.454Z,5.07
2019-05-18T05:00:39.454Z,5.17
2019-05-18T05:03:10.671Z,5.40
2019-05-18T05:05:39.688Z,4.43
2019-05-18T05:08:08.735Z,5.03
2019-05-18T05:10:37.870Z,4.60
2019-05-18T05:13:07.605Z,5.27
2019-05-18T05:15:36.831Z,4.97
2019-05-18T05:18:05.931Z,4.80
2019-05-18T05:20:35.165Z,5.03
2019-05-18T05:23:04.270Z,4.90
2019-05-18T05:25:33.814Z,5.30
2019-05-18T05:28:03.282Z,4.77
2019-05-18T05:30:32.163Z,5.17
2019-05-18T05:33:01.374Z,4.73
2019-05-18T05:35:49.530Z,5.57
2019-05-18T05:38:18.821Z,5.33
2019-05-18T05:40:49.380Z,5.63
2019-05-18T05:43:18.658Z,5.30
2019-05-18T05:45:47.651Z,4.90
2019-05-18T05:48:16.819Z,5.10
2019-05-18T05:50:45.836Z,5.57
2019-05-18T05:53:16.548Z,4.67
2019-05-18T05:55:45.747Z,5.23
2019-05-18T05:58:15.230Z,4.93
2019-05-18T06:00:44.349Z,5.20
2019-05-18T06:03:13.378Z,5.83
2019-05-18T06:05:42.595Z,5.40
2019-05-18T06:08:13.050Z,5.70
2019-05-18T06:10:43.631Z,5.57
2019-05-18T06:13:12.734Z,4.77
2019-05-18T06:15:41.928Z,4.57
2019-05-18T06:18:11.360Z,5.70
2019-05-18T06:20:51.110Z,5.37
2019-05-18T06:23:11.024Z,5.37
2019-05-18T06:25:40.000Z,5.40
2019-05-18T06:28:08.834Z,5.70
2019-05-18T06:30:37.946Z,4.97
2019-05-18T06:33:08.238Z,4.87
2019-05-18T06:35:37.499Z,5.23
2019-05-18T06:38:06.488Z,4.60
2019-05-18T06:40:35.391Z,4.60
2019-05-18T06:43:05.253Z,5.50
2019-05-18T06:45:34.189Z,4.93
2019-05-18T06:48:03.442Z,5.30
2019-05-18T06:50:35.894Z,4.90
2019-05-18T06:53:05.247Z,5.23
2019-05-18T06:55:34.118Z,4.93
2019-05-18T06:58:03.475Z,5.20
2019-05-18T07:00:32.472Z,5.00
2019-05-18T07:03:01.468Z,5.40
2019-05-18T07:05:30.718Z,5.23
2019-05-18T07:07:59.874Z,4.23
2019-05-18T07:10:28.807Z,4.80
2019-05-18T07:13:17.021Z,4.83
2019-05-18T07:15:46.215Z,4.80
2019-05-18T07:18:18.286Z,5.47
2019-05-18T07:21:21.417Z,4.87
2019-05-18T07:23:43.850Z,4.93
2019-05-18T07:26:12.989Z,5.53
2019-05-18T07:28:42.050Z,4.00
2019-05-18T07:31:11.370Z,4.93
2019-05-18T07:33:49.458Z,4.60
2019-05-18T07:36:18.322Z,4.00
2019-05-18T07:38:47.194Z,4.57
2019-05-18T07:41:17.443Z,4.50
2019-05-18T07:43:46.418Z,5.03
2019-05-18T07:46:15.684Z,4.50
2019-05-18T07:48:44.665Z,4.80
2019-05-18T07:51:18.845Z,5.40
2019-05-18T07:53:47.855Z,4.67
2019-05-18T07:56:17.456Z,4.33
2019-05-18T07:58:46.807Z,4.77
2019-05-18T08:01:16.878Z,4.60
2019-05-18T08:03:46.119Z,4.57
2019-05-18T08:06:15.249Z,4.83
2019-05-18T08:08:44.323Z,4.20
2019-05-18T08:11:15.438Z,4.30
2019-05-18T08:13:44.571Z,4.70
2019-05-18T08:16:13.683Z,5.07
2019-05-18T08:18:44.653Z,4.97
2019-05-18T08:21:13.576Z,4.27
2019-05-18T08:23:44.726Z,4.90
2019-05-18T08:26:13.930Z,4.27
2019-05-18T08:28:45.104Z,4.90
2019-05-18T08:31:14.298Z,4.30
2019-05-18T08:33:43.702Z,4.30
2019-05-18T08:36:12.590Z,4.60
2019-05-18T08:38:41.667Z,4.80
2019-05-18T08:41:10.842Z,4.53
2019-05-18T08:43:39.927Z,4.33
2019-05-18T08:46:27.993Z,4.97
2019-05-18T08:48:57.036Z,5.00
2019-05-18T08:51:26.005Z,4.90
2019-05-18T08:53:55.086Z,4.67
2019-05-18T08:56:24.182Z,4.63
2019-05-18T08:58:53.402Z,4.93
2019-05-18T09:01:22.539Z,4.40
2019-05-18T09:03:51.513Z,4.77
2019-05-18T09:06:20.623Z,4.40
2019-05-18T09:08:49.734Z,4.97
2019-05-18T09:11:18.763Z,4.87
2019-05-18T09:13:47.966Z,4.13
2019-05-18T09:16:16.977Z,4.43
2019-05-18T09:18:46.097Z,4.40
2019-05-18T09:21:15.210Z,4.20
2019-05-18T09:23:44.394Z,4.10
2019-05-18T09:26:13.842Z,4.30
2019-05-18T09:28:43.275Z,4.50
2019-05-18T09:31:12.419Z,4.80
2019-05-18T09:33:41.438Z,4.50
2019-05-18T09:38:56.886Z,4.20
2019-05-18T09:41:27.656Z,4.70
2019-05-18T09:43:56.748Z,4.50
2019-05-18T09:46:25.903Z,4.10
2019-05-18T09:48:55.120Z,4.73
2019-05-18T09:51:24.251Z,4.30
2019-05-18T09:53:53.685Z,4.63
2019-05-18T09:56:22.953Z,3.97
2019-05-18T09:58:58.038Z,4.10
2019-05-18T10:01:26.894Z,3.90
2019-05-18T10:03:55.993Z,4.40
2019-05-18T10:06:25.244Z,4.17
2019-05-18T10:08:54.055Z,4.33
2019-05-18T10:11:23.300Z,3.80
2019-05-18T10:13:52.371Z,4.67
2019-05-18T10:16:21.982Z,4.20
2019-05-18T10:18:50.966Z,4.30
2019-05-18T10:21:24.628Z,4.80
2019-05-18T10:23:54.550Z,4.30
2019-05-18T10:26:23.609Z,4.50
2019-05-18T10:28:52.612Z,3.73
2019-05-18T10:31:21.578Z,4.07
2019-05-18T10:33:50.688Z,4.10
2019-05-18T10:36:19.913Z,4.30
2019-05-18T10:38:49.270Z,4.03
2019-05-18T10:41:18.386Z,3.90
2019-05-18T10:43:47.398Z,4.10
2019-05-18T10:46:16.491Z,4.60
2019-05-18T10:48:45.605Z,4.43
2019-05-18T10:51:14.700Z,3.73
2019-05-18T10:53:44.016Z,4.10
2019-05-18T10:56:13.459Z,4.17
2019-05-18T10:58:42.483Z,3.73
2019-05-18T11:01:11.426Z,3.67
2019-05-18T11:03:59.561Z,4.20
2019-05-18T11:06:34.710Z,3.90
2019-05-18T11:09:05.518Z,3.57
2019-05-18T11:11:35.970Z,4.43
2019-05-18T11:14:04.897Z,3.57
2019-05-18T11:16:33.910Z,3.87
2019-05-18T11:19:03.108Z,4.23
2019-05-18T11:21:31.977Z,4.43
2019-05-18T11:24:01.226Z,3.40
2019-05-18T11:26:30.322Z,3.80
2019-05-18T11:28:59.459Z,3.90
2019-05-18T11:31:29.663Z,3.50
2019-05-18T11:33:58.693Z,3.73
2019-05-18T11:36:27.620Z,4.20
2019-05-18T11:38:58.648Z,3.60
2019-05-18T11:41:27.652Z,3.60
2019-05-18T11:43:56.977Z,3.80
2019-05-18T11:46:34.611Z,3.67
2019-05-18T11:49:03.475Z,3.67
2019-05-18T11:51:32.398Z,3.80
2019-05-18T11:54:01.438Z,3.97
2019-05-18T11:56:34.642Z,3.43
2019-05-18T11:59:03.694Z,3.60
2019-05-18T12:01:32.954Z,4.17
2019-05-18T12:04:01.921Z,3.90
2019-05-18T12:06:31.181Z,3.50
2019-05-18T12:09:00.219Z,3.73
2019-05-18T12:11:29.218Z,3.90
2019-05-18T12:13:58.432Z,3.83
2019-05-18T12:16:28.640Z,3.50
2019-05-18T12:18:57.844Z,3.50
2019-05-18T12:21:32.951Z,3.40
2019-05-18T12:24:14.979Z,3.90
2019-05-18T12:26:32.803Z,3.60
2019-05-18T12:29:01.895Z,3.60
2019-05-18T12:31:30.987Z,3.57
2019-05-18T12:34:00.079Z,3.53
2019-05-18T12:36:29.203Z,3.60
2019-05-18T12:38:58.076Z,3.70
2019-05-18T12:41:29.906Z,3.63
2019-05-18T12:43:59.212Z,3.60
2019-05-18T12:46:28.883Z,3.40
2019-05-18T12:48:57.776Z,3.30
2019-05-18T12:51:26.653Z,3.20
2019-05-18T12:53:55.710Z,3.97
2019-05-18T12:56:24.862Z,3.13
2019-05-18T12:58:55.934Z,3.60
2019-05-18T13:01:25.042Z,3.40
2019-05-18T13:03:54.243Z,3.53
2019-05-18T13:06:23.232Z,3.20
2019-05-18T13:08:52.362Z,3.23
2019-05-18T13:11:21.423Z,3.60
2019-05-18T13:13:50.520Z,2.83
2019-05-18T13:16:19.607Z,3.23
2019-05-18T13:18:48.721Z,2.90
2019-05-18T13:21:17.813Z,3.17
2019-05-18T13:23:47.005Z,3.10
2019-05-18T13:26:16.009Z,3.50
2019-05-18T13:28:45.186Z,3.77
2019-05-18T13:31:14.198Z,3.33
2019-05-18T13:33:43.314Z,3.30
2019-05-18T13:36:12.492Z,3.63
2019-05-18T13:38:41.502Z,3.60
2019-05-18T13:41:10.574Z,3.13
2019-05-18T13:43:39.678Z,3.60
2019-05-18T13:46:08.780Z,3.03
2019-05-18T13:48:37.870Z,3.50
2019-05-18T13:51:07.059Z,3.23
2019-05-18T13:53:36.055Z,3.27
2019-05-18T13:56:05.167Z,3.37
2019-05-18T13:58:34.258Z,3.13
2019-05-18T14:01:05.726Z,3.40
2019-05-18T14:03:34.915Z,3.03
2019-05-18T14:06:03.816Z,2.87
2019-05-18T14:08:33.122Z,3.17
2019-05-18T14:11:13.893Z,3.43
2019-05-18T14:13:43.237Z,3.47
2019-05-18T14:16:12.055Z,3.30
2019-05-18T14:18:46.711Z,3.10
2019-05-18T14:21:15.786Z,3.20
2019-05-18T14:23:44.968Z,2.83
2019-05-18T14:26:13.837Z,2.83
2019-05-18T14:28:42.735Z,3.43
2019-05-18T14:31:11.819Z,3.00
2019-05-18T14:33:41.353Z,2.73
2019-05-18T14:36:10.383Z,3.27
2019-05-18T14:38:39.321Z,3.10
2019-05-18T14:41:08.546Z,3.30
2019-05-18T14:43:37.737Z,2.97
2019-05-18T14:46:06.810Z,2.83
2019-05-18T14:48:35.947Z,3.10
2019-05-18T14:51:04.938Z,3.03
2019-05-18T14:53:34.087Z,2.87
2019-05-18T14:56:03.291Z,3.17
2019-05-18T14:58:43.201Z,3.50
2019-05-18T15:01:12.362Z,3.30
2019-05-18T15:03:41.533Z,2.70
2019-05-18T15:06:10.570Z,3.47
2019-05-18T15:08:39.686Z,3.70
2019-05-18T15:11:08.771Z,3.60
2019-05-18T15:13:37.594Z,3.07
2019-05-18T15:16:06.551Z,3.47
2019-05-18T15:18:35.657Z,3.33
2019-05-18T15:21:04.454Z,3.43
2019-05-18T15:23:33.531Z,3.00
2019-05-18T15:26:02.534Z,3.17
2019-05-18T15:28:37.885Z,3.30
2019-05-18T15:31:06.850Z,3.30
2019-05-18T15:33:36.031Z,3.40
2019-05-18T15:36:05.154Z,3.43
2019-05-18T15:38:34.163Z,2.93
2019-05-18T15:41:03.263Z,3.13
2019-05-18T15:43:32.419Z,3.20
2019-05-18T15:46:01.431Z,3.00
2019-05-18T15:48:30.575Z,3.20
2019-05-18T15:50:59.479Z,3.20
2019-05-18T15:53:28.730Z,2.77
2019-05-18T15:56:05.930Z,3.40
2019-05-18T15:58:28.591Z,3.10
2019-05-18T16:00:57.811Z,3.33
2019-05-18T16:03:26.771Z,3.00
2019-05-18T16:05:55.818Z,3.50
2019-05-18T16:08:25.051Z,2.80
2019-05-18T16:10:59.048Z,3.40
2019-05-18T16:13:27.953Z,2.73
2019-05-18T16:15:57.770Z,3.10
2019-05-18T16:18:29.183Z,3.10
2019-05-18T16:20:58.279Z,3.43
2019-05-18T16:23:27.173Z,3.00
2019-05-18T16:25:56.391Z,3.30
2019-05-18T16:28:25.509Z,2.97
2019-05-18T16:30:54.723Z,2.97
2019-05-18T16:33:24.026Z,2.87
2019-05-18T16:35:53.195Z,3.17
2019-05-18T16:38:25.021Z,3.17
2019-05-18T16:40:54.320Z,2.90
2019-05-18T16:43:24.277Z,2.70
2019-05-18T16:45:58.943Z,2.83
2019-05-18T16:48:28.082Z,3.17
2019-05-18T16:50:57.300Z,3.43
2019-05-18T16:53:26.284Z,2.60
2019-05-18T16:55:55.385Z,3.03
2019-05-18T16:58:24.248Z,2.60
2019-05-18T17:00:53.178Z,2.73
2019-05-18T17:03:22.395Z,3.00
2019-05-18T17:05:53.007Z,3.13
2019-05-18T17:08:22.182Z,2.50
2019-05-18T17:10:51.202Z,2.57
2019-05-18T17:13:20.086Z,3.00
2019-05-18T17:15:48.946Z,3.47
2019-05-18T17:18:18.045Z,3.10
2019-05-18T17:20:46.884Z,2.90
2019-05-18T17:23:16.820Z,2.80
2019-05-18T17:25:45.785Z,2.93
2019-05-18T17:28:14.679Z,3.17
2019-05-18T17:30:43.941Z,3.30
2019-05-18T17:33:13.140Z,3.00
2019-05-18T17:35:59.841Z,3.37
2019-05-18T17:38:19.139Z,3.73
2019-05-18T17:40:48.245Z,3.50
2019-05-18T17:43:17.299Z,3.43
2019-05-18T17:45:46.166Z,3.33
2019-05-18T17:48:14.991Z,3.20
2019-05-18T17:51:03.119Z,3.50
2019-05-18T17:53:34.891Z,3.00
2019-05-18T17:56:03.986Z,3.13
2019-05-18T17:58:33.142Z,3.00
2019-05-18T18:01:02.291Z,2.50
2019-05-18T18:03:31.209Z,3.13
2019-05-18T18:06:19.288Z,2.87
2019-05-18T18:08:48.458Z,3.07
2019-05-18T18:11:17.367Z,2.70
2019-05-18T18:13:46.507Z,3.30
2019-05-18T18:16:16.721Z,3.03
2019-05-18T18:18:45.907Z,3.00
2019-05-18T18:21:15.027Z,3.07
2019-05-18T18:23:44.096Z,3.63
2019-05-18T18:26:13.306Z,3.17
2019-05-18T18:28:42.173Z,3.33
2019-05-18T18:31:13.629Z,3.47
2019-05-18T18:33:42.619Z,3.17
2019-05-18T18:36:11.978Z,2.70
2019-05-18T18:38:47.095Z,3.57
2019-05-18T18:41:36.979Z,2.90
2019-05-18T18:44:10.893Z,3.20
2019-05-18T18:46:39.973Z,3.10
2019-05-18T18:49:09.132Z,3.60
2019-05-18T18:51:38.163Z,3.53
2019-05-18T18:54:08.061Z,3.27
2019-05-18T18:56:37.239Z,3.50
2019-05-18T18:59:06.171Z,3.30
2019-05-18T19:01:35.354Z,3.37
2019-05-18T19:04:05.432Z,3.13
2019-05-18T19:06:34.483Z,2.97
2019-05-18T19:09:04.170Z,3.17
2019-05-18T19:11:33.439Z,3.47
2019-05-18T19:14:02.632Z,3.20
2019-05-18T19:16:31.626Z,3.50
2019-05-18T19:19:00.666Z,3.33
2019-05-18T19:21:29.864Z,4.00
2019-05-18T19:23:58.949Z,3.40
2019-05-18T19:26:30.957Z,3.77
2019-05-18T19:28:59.985Z,3.60
2019-05-18T19:31:29.054Z,3.70
2019-05-18T19:33:58.146Z,3.70
2019-05-18T19:36:27.251Z,3.47
2019-05-18T19:38:58.801Z,4.00
2019-05-18T19:41:28.026Z,3.50
2019-05-18T19:43:57.051Z,4.40
2019-05-18T19:46:26.027Z,3.40
2019-05-18T19:48:55.508Z,3.50
2019-05-18T19:51:26.382Z,3.40
2019-05-18T19:53:55.953Z,3.70
2019-05-18T19:56:29.114Z,3.77
2019-05-18T19:58:58.946Z,3.30
2019-05-18T20:01:27.844Z,3.83
2019-05-18T20:03:56.682Z,3.40
2019-05-18T20:06:25.806Z,3.47
2019-05-18T20:08:54.890Z,3.80
2019-05-18T20:11:24.096Z,3.80
2019-05-18T20:13:53.378Z,3.50
2019-05-18T20:16:22.592Z,3.63
2019-05-18T20:18:52.031Z,4.00
2019-05-18T20:21:21.340Z,3.57
2019-05-18T20:23:50.207Z,3.77
2019-05-18T20:26:19.405Z,3.83
2019-05-18T20:28:48.477Z,4.00
2019-05-18T20:31:17.608Z,3.60
2019-05-18T20:33:46.684Z,3.87
2019-05-18T20:36:15.858Z,3.90
2019-05-18T20:38:44.884Z,3.70
2019-05-18T20:41:13.951Z,3.63
2019-05-18T20:43:43.123Z,4.07
2019-05-18T20:46:14.445Z,3.40
2019-05-18T20:48:43.505Z,3.50
2019-05-18T20:51:22.844Z,3.20
2019-05-18T20:53:53.404Z,4.10
2019-05-18T20:56:22.466Z,3.47
2019-05-18T20:58:51.346Z,3.60
2019-05-18T21:01:23.158Z,3.60
2019-05-18T21:03:52.224Z,3.63
2019-05-18T21:06:21.405Z,4.10
2019-05-18T21:08:50.367Z,3.60
2019-05-18T21:11:23.299Z,3.87
2019-05-18T21:13:52.359Z,3.77
2019-05-18T21:16:23.698Z,4.00
2019-05-18T21:18:53.025Z,3.90
2019-05-18T21:21:25.754Z,3.80
2019-05-18T21:23:52.860Z,3.60
2019-05-18T21:26:21.850Z,3.83
2019-05-18T21:28:59.119Z,3.80
2019-05-18T21:31:38.631Z,4.20
2019-05-18T21:34:10.939Z,3.60
2019-05-18T21:36:40.047Z,4.00
2019-05-18T21:39:09.058Z,4.03
2019-05-18T21:41:38.146Z,4.23
2019-05-18T21:44:07.393Z,4.50
2019-05-18T21:46:39.075Z,3.83
2019-05-18T21:49:10.039Z,4.00
2019-05-18T21:51:39.095Z,4.00
2019-05-18T21:54:08.270Z,4.33
2019-05-18T21:56:40.943Z,3.90
2019-05-18T21:59:12.224Z,4.10
2019-05-18T22:01:41.412Z,3.97
2019-05-18T22:04:17.305Z,4.17
2019-05-18T22:06:46.304Z,4.13
2019-05-18T22:09:15.195Z,3.87
2019-05-18T22:11:44.495Z,3.80
2019-05-18T22:14:13.588Z,4.17
2019-05-18T22:16:42.764Z,4.07
2019-05-18T22:19:11.641Z,3.83
2019-05-18T22:21:40.943Z,3.83
2019-05-18T22:24:10.068Z,4.17
2019-05-18T22:26:39.018Z,4.37
2019-05-18T22:29:10.130Z,4.07
2019-05-18T22:31:39.372Z,4.07
2019-05-18T22:34:08.264Z,4.07
2019-05-18T22:36:37.155Z,3.53
2019-05-18T22:39:07.021Z,4.17
2019-05-18T22:41:36.513Z,4.13
2019-05-18T22:44:05.593Z,3.93
2019-05-18T22:46:34.686Z,4.00
2019-05-18T22:49:03.864Z,4.27
2019-05-18T22:51:32.885Z,4.27
2019-05-18T22:54:02.060Z,4.20
2019-05-18T22:56:31.480Z,4.00
2019-05-18T22:59:00.619Z,3.57
2019-05-18T23:01:29.486Z,3.97
2019-05-18T23:03:59.187Z,3.83
2019-05-18T23:06:31.422Z,4.30
2019-05-18T23:09:00.659Z,3.80
2019-05-18T23:11:29.537Z,3.73
2019-05-18T23:13:58.457Z,4.00
2019-05-18T23:16:27.526Z,3.30
2019-05-18T23:18:57.425Z,3.60
2019-05-18T23:21:26.957Z,4.30
2019-05-18T23:23:56.067Z,4.00
2019-05-18T23:26:25.149Z,3.80
2019-05-18T23:28:54.361Z,3.77
2019-05-18T23:31:29.112Z,3.60
2019-05-18T23:33:58.182Z,4.03
2019-05-18T23:36:27.323Z,3.63
2019-05-18T23:38:56.215Z,4.40
2019-05-18T23:41:25.443Z,3.67
2019-05-18T23:43:54.293Z,3.77
2019-05-18T23:46:29.013Z,3.50
2019-05-18T23:49:10.062Z,3.93
2019-05-18T23:51:28.812Z,3.90
2019-05-18T23:53:57.974Z,3.77
2019-05-18T23:56:27.064Z,3.40
2019-05-18T23:58:56.101Z,4.30
